sensor_id;sensor_type;location;lat;lon;timestamp;pressure;altitude;pressure_sealevel;temperature;humidity
9523;BME280;63165;43.016;25.784;2023-02-23T00:01:23;99991.25;;;5.61;70.24
9523;BME280;63165;43.016;25.784;2023-02-23T00:03:53;99994.69;;;5.54;70.29
9523;BME280;63165;43.016;25.784;2023-02-23T00:06:21;99995.53;;;5.47;70.39
9523;BME280;63165;43.016;25.784;2023-02-23T00:08:48;99993.78;;;5.43;70.17
9523;BME280;63165;43.016;25.784;2023-02-23T00:11:18;99992.03;;;5.42;70.14
9523;BME280;63165;43.016;25.784;2023-02-23T00:13:48;99993.78;;;5.37;70.81
9523;BME280;63165;43.016;25.784;2023-02-23T00:16:17;99990.28;;;5.35;70.84
9523;BME280;63165;43.016;25.784;2023-02-23T00:18:46;99992.88;;;5.33;70.73
9523;BME280;63165;43.016;25.784;2023-02-23T00:21:17;99988.53;;;5.29;70.87
9523;BME280;63165;43.016;25.784;2023-02-23T00:23:49;99996.31;;;5.24;70.89
9523;BME280;63165;43.016;25.784;2023-02-23T00:26:17;99988.47;;;5.15;71.21
9523;BME280;63165;43.016;25.784;2023-02-23T00:28:48;99999.75;;;5.22;71.03
9523;BME280;63165;43.016;25.784;2023-02-23T00:31:16;99997.16;;;5.20;70.98
9523;BME280;63165;43.016;25.784;2023-02-23T00:33:43;99984.97;;;5.09;71.62
9523;BME280;63165;43.016;25.784;2023-02-23T00:36:13;99991.91;;;5.10;71.75
9523;BME280;63165;43.016;25.784;2023-02-23T00:38:40;99991.91;;;5.05;72.08
9523;BME280;63165;43.016;25.784;2023-02-23T00:41:12;99983.22;;;5.03;71.98
9523;BME280;63165;43.016;25.784;2023-02-23T00:43:41;99988.44;;;5.06;72.14
9523;BME280;63165;43.016;25.784;2023-02-23T00:46:14;99991.00;;;5.03;72.42
9523;BME280;63165;43.016;25.784;2023-02-23T00:48:42;99991.91;;;5.03;71.89
9523;BME280;63165;43.016;25.784;2023-02-23T00:51:10;99982.38;;;5.02;72.41
9523;BME280;63165;43.016;25.784;2023-02-23T00:53:38;99994.50;;;5.05;72.24
9523;BME280;63165;43.016;25.784;2023-02-23T00:56:07;99990.16;;;5.04;72.19
9523;BME280;63165;43.016;25.784;2023-02-23T00:58:34;99984.09;;;5.02;71.91
9523;BME280;63165;43.016;25.784;2023-02-23T01:01:04;99979.75;;;5.01;71.85
9523;BME280;63165;43.016;25.784;2023-02-23T01:03:34;99985.78;;;4.97;71.89
9523;BME280;63165;43.016;25.784;2023-02-23T01:06:03;99976.28;;;4.94;72.01
9523;BME280;63165;43.016;25.784;2023-02-23T01:08:31;99983.16;;;4.88;72.31
9523;BME280;63165;43.016;25.784;2023-02-23T01:11:05;99977.94;;;4.81;72.44
9523;BME280;63165;43.016;25.784;2023-02-23T01:13:33;99964.94;;;4.74;72.38
9523;BME280;63165;43.016;25.784;2023-02-23T01:16:03;99983.09;;;4.75;72.61
9523;BME280;63165;43.016;25.784;2023-02-23T01:18:34;99973.56;;;4.71;72.75
9523;BME280;63165;43.016;25.784;2023-02-23T01:21:02;99976.16;;;4.68;72.96
9523;BME280;63165;43.016;25.784;2023-02-23T01:23:31;99976.97;;;4.67;73.18
9523;BME280;63165;43.016;25.784;2023-02-23T01:25:58;99977.00;;;4.64;73.16
9523;BME280;63165;43.016;25.784;2023-02-23T01:28:26;99982.09;;;4.58;73.11
9523;BME280;63165;43.016;25.784;2023-02-23T01:30:53;99976.00;;;4.48;73.31
9523;BME280;63165;43.016;25.784;2023-02-23T01:33:20;99981.16;;;4.46;73.45
9523;BME280;63165;43.016;25.784;2023-02-23T01:35:57;99976.88;;;4.45;74.09
9523;BME280;63165;43.016;25.784;2023-02-23T01:38:25;99978.56;;;4.43;73.87
9523;BME280;63165;43.016;25.784;2023-02-23T01:40:52;99971.63;;;4.38;74.23
9523;BME280;63165;43.016;25.784;2023-02-23T01:43:21;99980.16;;;4.26;74.41
9523;BME280;63165;43.016;25.784;2023-02-23T01:45:54;99986.22;;;4.30;75.01
9523;BME280;63165;43.016;25.784;2023-02-23T01:48:25;99985.38;;;4.31;74.91
9523;BME280;63165;43.016;25.784;2023-02-23T01:50:56;99981.91;;;4.30;74.80
9523;BME280;63165;43.016;25.784;2023-02-23T01:53:29;99980.16;;;4.27;74.89
9523;BME280;63165;43.016;25.784;2023-02-23T01:55:59;99982.78;;;4.29;74.54
9523;BME280;63165;43.016;25.784;2023-02-23T01:58:29;99975.81;;;4.23;74.39
9523;BME280;63165;43.016;25.784;2023-02-23T02:00:58;99980.16;;;4.26;74.79
9523;BME280;63165;43.016;25.784;2023-02-23T02:03:31;99986.22;;;4.28;74.87
9523;BME280;63165;43.016;25.784;2023-02-23T02:06:01;99987.09;;;4.32;75.28
9523;BME280;63165;43.016;25.784;2023-02-23T02:08:31;99979.34;;;4.28;74.57
9523;BME280;63165;43.016;25.784;2023-02-23T02:10:59;99988.81;;;4.26;74.93
9523;BME280;63165;43.016;25.784;2023-02-23T02:13:34;99983.59;;;4.23;74.96
9523;BME280;63165;43.016;25.784;2023-02-23T02:16:19;99987.00;;;4.18;75.00
9523;BME280;63165;43.016;25.784;2023-02-23T02:19:12;99992.16;;;4.15;75.29
9523;BME280;63165;43.016;25.784;2023-02-23T02:22:08;99993.03;;;4.14;75.24
9523;BME280;63165;43.016;25.784;2023-02-23T02:31:46;99988.66;;;4.09;74.90
9523;BME280;63165;43.016;25.784;2023-02-23T02:34:48;99989.50;;;4.07;75.08
9523;BME280;63165;43.016;25.784;2023-02-23T02:37:42;99993.81;;;4.09;74.76
9523;BME280;63165;43.016;25.784;2023-02-23T02:40:17;99990.38;;;4.06;74.39
9523;BME280;63165;43.016;25.784;2023-02-23T02:42:54;99993.81;;;4.06;74.87
9523;BME280;63165;43.016;25.784;2023-02-23T02:45:29;99992.94;;;4.07;74.57
9523;BME280;63165;43.016;25.784;2023-02-23T02:48:03;99996.38;;;4.03;74.71
9523;BME280;63165;43.016;25.784;2023-02-23T02:50:40;100004.19;;;4.08;75.00
9523;BME280;63165;43.016;25.784;2023-02-23T02:53:15;99996.41;;;4.09;74.73
9523;BME280;63165;43.016;25.784;2023-02-23T02:55:46;100002.41;;;4.05;74.25
9523;BME280;63165;43.016;25.784;2023-02-23T02:58:16;100004.09;;;3.97;74.37
9523;BME280;63165;43.016;25.784;2023-02-23T03:00:46;100008.38;;;3.94;74.76
9523;BME280;63165;43.016;25.784;2023-02-23T03:03:32;100018.69;;;3.92;74.58
9523;BME280;63165;43.016;25.784;2023-02-23T03:06:19;100012.63;;;3.90;74.94
9523;BME280;63165;43.016;25.784;2023-02-23T03:09:19;100013.44;;;3.83;75.07
9523;BME280;63165;43.016;25.784;2023-02-23T03:12:14;100015.19;;;3.84;74.48
9523;BME280;63165;43.016;25.784;2023-02-23T03:15:06;100011.72;;;3.82;74.73
9523;BME280;63165;43.016;25.784;2023-02-23T03:17:57;100023.03;;;3.93;74.15
9523;BME280;63165;43.016;25.784;2023-02-23T03:20:48;100025.53;;;3.87;74.41
9523;BME280;63165;43.016;25.784;2023-02-23T03:23:39;100009.91;;;3.75;74.25
9523;BME280;63165;43.016;25.784;2023-02-23T03:26:31;100025.38;;;3.68;74.36
9523;BME280;63165;43.016;25.784;2023-02-23T03:29:26;100027.09;;;3.69;74.39
9523;BME280;63165;43.016;25.784;2023-02-23T03:32:19;100038.25;;;3.65;74.71
9523;BME280;63165;43.016;25.784;2023-02-23T03:35:08;100033.09;;;3.65;74.39
9523;BME280;63165;43.016;25.784;2023-02-23T03:38:01;100025.25;;;3.61;74.56
9523;BME280;63165;43.016;25.784;2023-02-23T03:40:50;100036.59;;;3.71;74.66
9523;BME280;63165;43.016;25.784;2023-02-23T03:43:41;100036.53;;;3.63;74.37
9523;BME280;63165;43.016;25.784;2023-02-23T03:46:30;100040.72;;;3.55;74.74
9523;BME280;63165;43.016;25.784;2023-02-23T03:49:17;100045.00;;;3.51;74.78
9523;BME280;63165;43.016;25.784;2023-02-23T03:52:08;100046.72;;;3.50;75.04
9523;BME280;63165;43.016;25.784;2023-02-23T03:54:57;100045.03;;;3.54;74.62
9523;BME280;63165;43.016;25.784;2023-02-23T03:57:45;100052.81;;;3.56;74.67
9523;BME280;63165;43.016;25.784;2023-02-23T04:00:37;100050.22;;;3.56;74.55
9523;BME280;63165;43.016;25.784;2023-02-23T04:03:24;100055.44;;;3.60;74.85
9523;BME280;63165;43.016;25.784;2023-02-23T04:06:12;100050.22;;;3.56;74.50
9523;BME280;63165;43.016;25.784;2023-02-23T04:09:01;100044.94;;;3.45;74.37
9523;BME280;63165;43.016;25.784;2023-02-23T04:11:49;100053.53;;;3.45;74.63
9523;BME280;63165;43.016;25.784;2023-02-23T04:14:38;100063.88;;;3.45;74.43
9523;BME280;63165;43.016;25.784;2023-02-23T04:17:08;100055.25;;;3.43;74.56
9523;BME280;63165;43.016;25.784;2023-02-23T04:19:35;100056.03;;;3.38;74.78
9523;BME280;63165;43.016;25.784;2023-02-23T04:22:02;100054.31;;;3.37;75.35
9523;BME280;63165;43.016;25.784;2023-02-23T04:24:30;100045.69;;;3.38;75.33
9523;BME280;63165;43.016;25.784;2023-02-23T04:26:57;100044.75;;;3.33;75.24
9523;BME280;63165;43.016;25.784;2023-02-23T04:29:26;100055.19;;;3.39;75.12
9523;BME280;63165;43.016;25.784;2023-02-23T04:31:53;100056.03;;;3.38;75.16
9523;BME280;63165;43.016;25.784;2023-02-23T04:34:22;100053.41;;;3.35;75.43
9523;BME280;63165;43.016;25.784;2023-02-23T04:36:49;100045.66;;;3.33;75.31
9523;BME280;63165;43.016;25.784;2023-02-23T04:39:17;100058.59;;;3.36;75.24
9523;BME280;63165;43.016;25.784;2023-02-23T04:41:44;100058.53;;;3.30;75.17
9523;BME280;63165;43.016;25.784;2023-02-23T04:44:13;100059.34;;;3.26;75.22
9523;BME280;63165;43.016;25.784;2023-02-23T04:46:40;100053.16;;;3.15;75.62
9523;BME280;63165;43.016;25.784;2023-02-23T04:49:08;100063.56;;;3.21;75.77
9523;BME280;63165;43.016;25.784;2023-02-23T04:51:36;100056.66;;;3.20;75.73
9523;BME280;63165;43.016;25.784;2023-02-23T04:54:04;100063.56;;;3.21;75.87
9523;BME280;63165;43.016;25.784;2023-02-23T04:56:32;100051.47;;;3.17;75.66
9523;BME280;63165;43.016;25.784;2023-02-23T04:58:59;100055.81;;;3.21;75.85
9523;BME280;63165;43.016;25.784;2023-02-23T05:01:26;100064.41;;;3.18;75.85
9523;BME280;63165;43.016;25.784;2023-02-23T05:03:54;100060.94;;;3.16;76.07
9523;BME280;63165;43.016;25.784;2023-02-23T05:06:21;100064.31;;;3.12;76.08
9523;BME280;63165;43.016;25.784;2023-02-23T05:08:50;100065.88;;;3.01;75.92
9523;BME280;63165;43.016;25.784;2023-02-23T05:11:17;100078.84;;;3.04;76.33
9523;BME280;63165;43.016;25.784;2023-02-23T05:13:44;100082.34;;;3.06;76.53
9523;BME280;63165;43.016;25.784;2023-02-23T05:16:12;100077.19;;;3.07;76.67
9523;BME280;63165;43.016;25.784;2023-02-23T05:18:39;100082.34;;;3.07;76.67
9523;BME280;63165;43.016;25.784;2023-02-23T05:21:07;100085.81;;;3.08;77.09
9523;BME280;63165;43.016;25.784;2023-02-23T05:23:36;100086.63;;;3.05;77.11
9523;BME280;63165;43.016;25.784;2023-02-23T05:26:07;100095.31;;;3.09;77.02
9523;BME280;63165;43.016;25.784;2023-02-23T05:28:36;100111.53;;;3.00;76.69
9523;BME280;63165;43.016;25.784;2023-02-23T05:31:04;100102.19;;;3.07;76.79
9523;BME280;63165;43.016;25.784;2023-02-23T05:33:32;100104.78;;;3.10;76.79
9523;BME280;63165;43.016;25.784;2023-02-23T05:36:03;100108.31;;;3.15;77.22
9523;BME280;63165;43.016;25.784;2023-02-23T05:38:30;100103.06;;;3.09;76.84
9523;BME280;63165;43.016;25.784;2023-02-23T05:40:58;100110.81;;;3.09;77.31
9523;BME280;63165;43.016;25.784;2023-02-23T05:43:31;100123.81;;;3.15;77.54
9523;BME280;63165;43.016;25.784;2023-02-23T05:45:58;100128.22;;;3.21;77.59
9523;BME280;63165;43.016;25.784;2023-02-23T05:48:26;100126.53;;;3.24;77.83
9523;BME280;63165;43.016;25.784;2023-02-23T05:50:54;100133.50;;;3.28;77.70
9523;BME280;63165;43.016;25.784;2023-02-23T05:53:21;100126.69;;;3.34;77.93
9523;BME280;63165;43.016;25.784;2023-02-23T05:55:48;100137.97;;;3.39;77.99
9523;BME280;63165;43.016;25.784;2023-02-23T05:58:16;100138.84;;;3.41;78.14
9523;BME280;63165;43.016;25.784;2023-02-23T06:00:45;100148.47;;;3.51;78.85
9523;BME280;63165;43.016;25.784;2023-02-23T06:03:12;100139.88;;;3.54;79.25
9523;BME280;63165;43.016;25.784;2023-02-23T06:05:40;100143.47;;;3.63;79.34
9523;BME280;63165;43.016;25.784;2023-02-23T06:08:08;100154.69;;;3.65;79.30
9523;BME280;63165;43.016;25.784;2023-02-23T06:10:35;100139.22;;;3.70;79.62
9523;BME280;63165;43.016;25.784;2023-02-23T06:13:02;100155.72;;;3.78;80.13
9523;BME280;63165;43.016;25.784;2023-02-23T06:15:29;100133.25;;;3.74;80.68
9523;BME280;63165;43.016;25.784;2023-02-23T06:17:59;100156.75;;;3.93;81.33
9523;BME280;63165;43.016;25.784;2023-02-23T06:20:26;100161.16;;;4.00;81.37
9523;BME280;63165;43.016;25.784;2023-02-23T06:22:53;100145.59;;;3.97;81.87
9523;BME280;63165;43.016;25.784;2023-02-23T06:25:22;100163.03;;;4.15;82.67
9523;BME280;63165;43.016;25.784;2023-02-23T06:27:49;100166.59;;;4.24;83.70
9523;BME280;63165;43.016;25.784;2023-02-23T06:30:18;100173.59;;;4.33;84.31
9523;BME280;63165;43.016;25.784;2023-02-23T06:32:45;100170.28;;;4.43;84.61
9523;BME280;63165;43.016;25.784;2023-02-23T06:35:14;100175.53;;;4.54;84.87
9523;BME280;63165;43.016;25.784;2023-02-23T06:37:41;100173.97;;;4.70;85.04
9523;BME280;63165;43.016;25.784;2023-02-23T06:40:10;100173.19;;;4.80;85.71
9523;BME280;63165;43.016;25.784;2023-02-23T06:42:37;100173.34;;;4.96;86.37
9523;BME280;63165;43.016;25.784;2023-02-23T06:45:05;100178.63;;;5.10;86.76
9523;BME280;63165;43.016;25.784;2023-02-23T06:47:33;100164.00;;;5.19;86.64
9523;BME280;63165;43.016;25.784;2023-02-23T06:50:00;100177.09;;;5.36;86.56
9523;BME280;63165;43.016;25.784;2023-02-23T06:52:30;100171.13;;;5.53;87.13
9523;BME280;63165;43.016;25.784;2023-02-23T06:54:57;100168.63;;;5.68;87.61
9523;BME280;63165;43.016;25.784;2023-02-23T06:57:24;100163.47;;;5.79;87.52
9523;BME280;63165;43.016;25.784;2023-02-23T06:59:52;100169.66;;;5.99;87.47
9523;BME280;63165;43.016;25.784;2023-02-23T07:02:19;100175.78;;;6.17;87.16
9523;BME280;63165;43.016;25.784;2023-02-23T07:04:46;100174.97;;;6.32;87.25
9523;BME280;63165;43.016;25.784;2023-02-23T07:07:13;100163.75;;;6.44;87.00
9523;BME280;63165;43.016;25.784;2023-02-23T07:09:42;100169.84;;;6.63;87.46
9523;BME280;63165;43.016;25.784;2023-02-23T07:12:10;100171.56;;;6.82;87.31
9523;BME280;63165;43.016;25.784;2023-02-23T07:14:38;100181.13;;;7.00;86.66
9523;BME280;63165;43.016;25.784;2023-02-23T07:17:05;100169.84;;;7.12;86.09
9523;BME280;63165;43.016;25.784;2023-02-23T07:19:32;100175.00;;;7.35;86.21
9523;BME280;63165;43.016;25.784;2023-02-23T07:21:59;100168.06;;;7.52;85.63
9523;BME280;63165;43.016;25.784;2023-02-23T07:24:27;100171.47;;;7.70;84.92
9523;BME280;63165;43.016;25.784;2023-02-23T07:26:56;100176.63;;;7.90;84.07
9523;BME280;63165;43.016;25.784;2023-02-23T07:29:23;100170.50;;;8.06;83.43
9523;BME280;63165;43.016;25.784;2023-02-23T07:31:52;100172.97;;;8.26;82.17
9523;BME280;63165;43.016;25.784;2023-02-23T07:34:19;100171.19;;;8.42;81.95
9523;BME280;63165;43.016;25.784;2023-02-23T07:36:47;100178.91;;;8.62;81.58
9523;BME280;63165;43.016;25.784;2023-02-23T07:39:14;100175.28;;;8.79;81.27
9523;BME280;63165;43.016;25.784;2023-02-23T07:41:42;100177.75;;;9.00;80.27
9523;BME280;63165;43.016;25.784;2023-02-23T07:44:11;100175.00;;;9.16;79.21
9523;BME280;63165;43.016;25.784;2023-02-23T07:46:38;100178.31;;;9.35;78.24
9523;BME280;63165;43.016;25.784;2023-02-23T07:49:06;100172.91;;;9.51;77.15
9523;BME280;63165;43.016;25.784;2023-02-23T07:51:34;100173.66;;;9.64;76.91
9523;BME280;63165;43.016;25.784;2023-02-23T07:54:02;100175.19;;;9.82;76.07
9523;BME280;63165;43.016;25.784;2023-02-23T07:56:30;100175.84;;;10.01;76.23
9523;BME280;63165;43.016;25.784;2023-02-23T07:58:57;100178.22;;;10.20;75.79
9523;BME280;63165;43.016;25.784;2023-02-23T08:01:26;100179.78;;;10.36;75.17
9523;BME280;63165;43.016;25.784;2023-02-23T08:03:53;100176.94;;;10.53;74.26
9523;BME280;63165;43.016;25.784;2023-02-23T08:06:21;100173.19;;;10.69;73.45
9523;BME280;63165;43.016;25.784;2023-02-23T08:08:48;100182.50;;;10.89;72.76
9523;BME280;63165;43.016;25.784;2023-02-23T08:11:15;100171.81;;;11.01;72.22
9523;BME280;63165;43.016;25.784;2023-02-23T08:13:42;100176.72;;;11.21;71.55
9523;BME280;63165;43.016;25.784;2023-02-23T08:16:09;100173.91;;;11.32;70.17
9523;BME280;63165;43.016;25.784;2023-02-23T08:18:38;100176.22;;;11.51;69.84
9523;BME280;63165;43.016;25.784;2023-02-23T08:21:05;100179.34;;;11.70;69.39
9523;BME280;63165;43.016;25.784;2023-02-23T08:23:33;100168.56;;;11.83;69.22
9523;BME280;63165;43.016;25.784;2023-02-23T08:26:01;100175.13;;;12.08;69.63
9523;BME280;63165;43.016;25.784;2023-02-23T08:28:29;100179.16;;;12.22;68.75
9523;BME280;63165;43.016;25.784;2023-02-23T08:30:57;100173.56;;;12.39;67.99
9523;BME280;63165;43.016;25.784;2023-02-23T08:33:25;100180.13;;;12.59;67.82
9523;BME280;63165;43.016;25.784;2023-02-23T08:35:57;100179.75;;;12.76;66.60
9523;BME280;63165;43.016;25.784;2023-02-23T08:38:27;100173.28;;;12.89;66.40
9523;BME280;63165;43.016;25.784;2023-02-23T08:40:54;100183.25;;;13.11;65.06
9523;BME280;63165;43.016;25.784;2023-02-23T08:43:21;100176.94;;;13.18;64.16
9523;BME280;63165;43.016;25.784;2023-02-23T08:45:48;100178.31;;;13.34;63.90
9523;BME280;63165;43.016;25.784;2023-02-23T08:48:16;100178.09;;;13.44;62.46
9523;BME280;63165;43.016;25.784;2023-02-23T08:50:43;100181.03;;;13.64;62.99
9523;BME280;63165;43.016;25.784;2023-02-23T08:53:16;100173.56;;;13.80;61.80
9523;BME280;63165;43.016;25.784;2023-02-23T08:55:44;100175.88;;;13.92;60.90
9523;BME280;63165;43.016;25.784;2023-02-23T08:58:11;100168.78;;;13.94;59.23
9523;BME280;63165;43.016;25.784;2023-02-23T09:00:38;100172.69;;;14.12;58.95
9523;BME280;63165;43.016;25.784;2023-02-23T09:03:06;100172.22;;;14.28;59.15
9523;BME280;63165;43.016;25.784;2023-02-23T09:05:36;100174.34;;;14.45;57.65
9523;BME280;63165;43.016;25.784;2023-02-23T09:08:03;100169.59;;;14.56;57.33
9523;BME280;63165;43.016;25.784;2023-02-23T09:10:33;100172.44;;;14.78;56.24
9523;BME280;63165;43.016;25.784;2023-02-23T09:13:00;100162.56;;;14.85;55.86
9523;BME280;63165;43.016;25.784;2023-02-23T09:15:27;100169.09;;;15.00;55.23
9523;BME280;63165;43.016;25.784;2023-02-23T09:17:59;100164.25;;;15.14;55.12
9523;BME280;63165;43.016;25.784;2023-02-23T09:20:26;100156.69;;;15.30;54.33
9523;BME280;63165;43.016;25.784;2023-02-23T09:22:54;100118.53;;;15.15;53.59
9523;BME280;63165;43.016;25.784;2023-02-23T09:25:21;100163.09;;;15.48;53.04
9523;BME280;63165;43.016;25.784;2023-02-23T09:27:51;100161.06;;;15.56;53.32
9523;BME280;63165;43.016;25.784;2023-02-23T09:30:21;100158.00;;;15.67;53.01
9523;BME280;63165;43.016;25.784;2023-02-23T09:32:49;100154.22;;;15.76;52.43
9523;BME280;63165;43.016;25.784;2023-02-23T09:35:18;100157.38;;;15.85;52.55
9523;BME280;63165;43.016;25.784;2023-02-23T09:37:47;100145.75;;;15.91;52.32
9523;BME280;63165;43.016;25.784;2023-02-23T09:40:17;100145.41;;;16.00;51.92
9523;BME280;63165;43.016;25.784;2023-02-23T09:42:50;100146.09;;;16.05;51.16
9523;BME280;63165;43.016;25.784;2023-02-23T09:45:28;100149.97;;;16.19;51.11
9523;BME280;63165;43.016;25.784;2023-02-23T09:48:07;100162.03;;;16.26;50.79
9523;BME280;63165;43.016;25.784;2023-02-23T09:50:37;100149.75;;;16.25;50.96
9523;BME280;63165;43.016;25.784;2023-02-23T09:53:11;100152.81;;;16.36;50.88
9523;BME280;63165;43.016;25.784;2023-02-23T09:55:42;100146.28;;;16.46;50.23
9523;BME280;63165;43.016;25.784;2023-02-23T09:58:18;100146.72;;;16.58;50.03
9523;BME280;63165;43.016;25.784;2023-02-23T10:00:53;100145.72;;;16.60;50.23
9523;BME280;63165;43.016;25.784;2023-02-23T10:03:28;100143.69;;;16.67;49.73
9523;BME280;63165;43.016;25.784;2023-02-23T10:05:59;100145.19;;;16.74;49.51
9523;BME280;63165;43.016;25.784;2023-02-23T10:08:38;100142.28;;;16.80;48.88
9523;BME280;63165;43.016;25.784;2023-02-23T10:11:12;100141.13;;;16.87;49.12
9523;BME280;63165;43.016;25.784;2023-02-23T10:13:50;100137.50;;;16.90;49.13
9523;BME280;63165;43.016;25.784;2023-02-23T10:16:23;100135.41;;;16.98;48.91
9523;BME280;63165;43.016;25.784;2023-02-23T10:19:00;100137.84;;;17.03;48.93
9523;BME280;63165;43.016;25.784;2023-02-23T10:21:33;100129.00;;;17.04;48.31
9523;BME280;63165;43.016;25.784;2023-02-23T10:24:04;100121.97;;;17.03;48.14
9523;BME280;63165;43.016;25.784;2023-02-23T10:26:38;100116.91;;;16.98;47.34
9523;BME280;63165;43.016;25.784;2023-02-23T10:29:20;100126.22;;;17.07;47.45
9523;BME280;63165;43.016;25.784;2023-02-23T10:31:50;100114.56;;;17.11;47.64
9523;BME280;63165;43.016;25.784;2023-02-23T10:34:20;100114.00;;;17.25;46.92
9523;BME280;63165;43.016;25.784;2023-02-23T10:36:52;100112.16;;;17.27;46.37
9523;BME280;63165;43.016;25.784;2023-02-23T10:39:23;100110.22;;;17.31;46.44
9523;BME280;63165;43.016;25.784;2023-02-23T10:41:52;100109.09;;;17.36;46.54
9523;BME280;63165;43.016;25.784;2023-02-23T10:44:23;100106.19;;;17.42;46.38
9523;BME280;63165;43.016;25.784;2023-02-23T10:46:54;100100.16;;;17.39;45.86
9523;BME280;63165;43.016;25.784;2023-02-23T10:49:25;100109.16;;;17.35;45.49
9523;BME280;63165;43.016;25.784;2023-02-23T10:51:55;100094.16;;;17.35;46.20
9523;BME280;63165;43.016;25.784;2023-02-23T10:54:35;100093.56;;;17.49;45.94
9523;BME280;63165;43.016;25.784;2023-02-23T10:57:04;100092.06;;;17.62;45.58
9523;BME280;63165;43.016;25.784;2023-02-23T10:59:33;100092.56;;;17.71;45.30
9523;BME280;63165;43.016;25.784;2023-02-23T11:02:15;100090.00;;;17.69;44.71
9523;BME280;63165;43.016;25.784;2023-02-23T11:04:53;100081.44;;;17.83;45.50
9523;BME280;63165;43.016;25.784;2023-02-23T11:07:23;100079.03;;;17.97;45.40
9523;BME280;63165;43.016;25.784;2023-02-23T11:09:54;100074.16;;;18.07;44.53
9523;BME280;63165;43.016;25.784;2023-02-23T11:12:23;100080.81;;;18.16;45.05
9523;BME280;63165;43.016;25.784;2023-02-23T11:14:56;100078.72;;;18.22;43.88
9523;BME280;63165;43.016;25.784;2023-02-23T11:17:29;100078.34;;;18.30;43.52
9523;BME280;63165;43.016;25.784;2023-02-23T11:19:59;100074.41;;;18.39;43.79
9523;BME280;63165;43.016;25.784;2023-02-23T11:22:31;100073.31;;;18.43;43.71
9523;BME280;63165;43.016;25.784;2023-02-23T11:25:02;100074.81;;;18.49;43.14
9523;BME280;63165;43.016;25.784;2023-02-23T11:27:38;100063.13;;;18.53;43.59
9523;BME280;63165;43.016;25.784;2023-02-23T11:30:14;100072.94;;;18.51;43.34
9523;BME280;63165;43.016;25.784;2023-02-23T11:32:41;100071.72;;;18.58;42.74
9523;BME280;63165;43.016;25.784;2023-02-23T11:35:23;100065.19;;;18.65;42.66
9523;BME280;63165;43.016;25.784;2023-02-23T11:37:53;100060.66;;;18.67;42.69
9523;BME280;63165;43.016;25.784;2023-02-23T11:40:22;100057.69;;;18.73;42.64
9523;BME280;63165;43.016;25.784;2023-02-23T11:42:53;100049.66;;;18.75;42.91
9523;BME280;63165;43.016;25.784;2023-02-23T11:45:23;100049.09;;;18.68;42.80
9523;BME280;63165;43.016;25.784;2023-02-23T11:47:53;100050.84;;;18.69;42.49
9523;BME280;63165;43.016;25.784;2023-02-23T11:50:23;100056.50;;;18.80;42.40
9523;BME280;63165;43.016;25.784;2023-02-23T11:52:55;100052.94;;;18.80;41.99
9523;BME280;63165;43.016;25.784;2023-02-23T11:55:24;100049.59;;;18.76;41.80
9523;BME280;63165;43.016;25.784;2023-02-23T11:57:51;100053.38;;;18.90;42.56
9523;BME280;63165;43.016;25.784;2023-02-23T12:00:25;100053.03;;;18.96;42.07
9523;BME280;63165;43.016;25.784;2023-02-23T12:02:57;100057.94;;;19.04;41.50
9523;BME280;63165;43.016;25.784;2023-02-23T12:05:27;100041.03;;;19.06;41.14
9523;BME280;63165;43.016;25.784;2023-02-23T12:08:00;100046.00;;;19.12;41.70
9523;BME280;63165;43.016;25.784;2023-02-23T12:10:28;100043.28;;;19.14;41.62
9523;BME280;63165;43.016;25.784;2023-02-23T12:13:04;100051.66;;;19.06;41.08
9523;BME280;63165;43.016;25.784;2023-02-23T12:15:42;100042.81;;;19.06;41.21
9523;BME280;63165;43.016;25.784;2023-02-23T12:21:07;100044.22;;;19.13;41.09
9523;BME280;63165;43.016;25.784;2023-02-23T12:23:40;100037.72;;;19.18;40.84
9523;BME280;63165;43.016;25.784;2023-02-23T12:26:11;100030.13;;;19.28;41.18
9523;BME280;63165;43.016;25.784;2023-02-23T12:28:49;100037.25;;;19.28;40.54
9523;BME280;63165;43.016;25.784;2023-02-23T12:31:26;100037.09;;;19.31;40.72
9523;BME280;63165;43.016;25.784;2023-02-23T12:33:59;100042.41;;;19.31;40.66
9523;BME280;63165;43.016;25.784;2023-02-23T12:36:34;100037.16;;;19.29;40.45
9523;BME280;63165;43.016;25.784;2023-02-23T12:39:07;100030.69;;;19.35;40.44
9523;BME280;63165;43.016;25.784;2023-02-23T12:41:47;100032.50;;;19.34;40.03
9523;BME280;63165;43.016;25.784;2023-02-23T12:44:29;100037.44;;;19.40;40.62
9523;BME280;63165;43.016;25.784;2023-02-23T12:47:07;100036.97;;;19.50;40.26
9523;BME280;63165;43.016;25.784;2023-02-23T12:49:43;100039.47;;;19.53;41.00
9523;BME280;63165;43.016;25.784;2023-02-23T12:52:15;100036.19;;;19.48;39.81
9523;BME280;63165;43.016;25.784;2023-02-23T12:54:44;100047.72;;;19.47;40.14
9523;BME280;63165;43.016;25.784;2023-02-23T12:57:21;100041.56;;;19.46;40.46
9523;BME280;63165;43.016;25.784;2023-02-23T13:00:03;100039.69;;;19.48;39.82
9523;BME280;63165;43.016;25.784;2023-02-23T13:02:40;100040.47;;;19.50;39.80
9523;BME280;63165;43.016;25.784;2023-02-23T13:05:22;100032.84;;;19.44;40.42
9523;BME280;63165;43.016;25.784;2023-02-23T13:07:59;100027.41;;;19.30;40.18
9523;BME280;63165;43.016;25.784;2023-02-23T13:10:36;100044.88;;;19.34;40.52
9523;BME280;63165;43.016;25.784;2023-02-23T13:13:19;100037.16;;;19.29;39.85
9523;BME280;63165;43.016;25.784;2023-02-23T13:15:55;100039.19;;;19.24;40.69
9523;BME280;63165;43.016;25.784;2023-02-23T13:18:31;100047.75;;;19.13;40.30
9523;BME280;63165;43.016;25.784;2023-02-23T13:21:07;100046.56;;;19.01;40.75
9523;BME280;63165;43.016;25.784;2023-02-23T13:23:40;100042.50;;;18.94;40.88
9523;BME280;63165;43.016;25.784;2023-02-23T13:26:15;100046.19;;;18.92;40.91
9523;BME280;63165;43.016;25.784;2023-02-23T13:28:54;100045.56;;;18.87;41.52
9523;BME280;63165;43.016;25.784;2023-02-23T13:31:25;100042.44;;;18.78;41.34
9523;BME280;63165;43.016;25.784;2023-02-23T13:33:56;100046.56;;;18.67;41.37